Caceres, Brazil
Current Conditions -  °F | °C
As of 5:00 PM on Monday 26 Jan 2015 (Local Time) from SBCY Reporting Station
Scattered Clouds Scattered Clouds  
Wind Chill: 88°   Ceiling: Unl
Heat Index: 93°   Visibility: 6mi
Dew Point: 70°   Wind: 12mph
Humidity: 55%   Direction: 320°NW
Pressure: 29.8"   Gusts: NA
Location:  16.05°S, 57.51°W
Report Text: SBCY 262000Z 32010KT 9999 SCT020 FEW025TCU 31/21 Q1009
Loading
Personal Weather Stations






























Interactive Weather Map New forecast layout! Learn more

10-Day Weather Forecast

Advertisements
Track Severe Weather on mobile